createdAt,value
2022-10-05T00:01:30.364Z,9.31
2022-10-05T00:04:18.961Z,9.29
2022-10-05T00:06:51.250Z,9.30
2022-10-05T00:09:23.635Z,9.30
2022-10-05T00:11:51.787Z,9.20
2022-10-05T00:14:46.618Z,9.42
2022-10-05T00:17:20.482Z,9.47
2022-10-05T00:19:52.239Z,9.44
2022-10-05T00:22:24.218Z,9.27
2022-10-05T00:24:57.758Z,9.11
2022-10-05T00:27:37.623Z,9.00
2022-10-05T00:30:16.704Z,9.01
2022-10-05T00:32:44.256Z,9.02
2022-10-05T00:35:12.731Z,8.77
2022-10-05T00:37:40.163Z,8.64
2022-10-05T00:40:16.278Z,8.44
2022-10-05T00:43:12.426Z,8.16
2022-10-05T00:46:12.772Z,8.16
2022-10-05T00:48:55.857Z,8.11
2022-10-05T00:51:27.577Z,8.29
2022-10-05T00:54:19.350Z,7.78
2022-10-05T00:57:07.429Z,7.63
2022-10-05T00:59:53.117Z,7.63
2022-10-05T01:02:33.019Z,7.79
2022-10-05T01:05:34.500Z,7.76
2022-10-05T01:08:22.921Z,7.68
2022-10-05T01:11:02.183Z,7.62
2022-10-05T01:13:29.129Z,7.64
2022-10-05T01:16:29.156Z,7.73
2022-10-05T01:19:01.671Z,7.83
2022-10-05T01:21:33.773Z,7.75
2022-10-05T01:24:19.172Z,7.59
2022-10-05T01:26:58.599Z,7.45
2022-10-05T01:29:33.514Z,7.45
2022-10-05T01:32:17.093Z,7.60
2022-10-05T01:35:08.250Z,7.65
2022-10-05T01:37:54.585Z,7.69
2022-10-05T01:40:47.592Z,7.68
2022-10-05T01:43:33.463Z,7.68
2022-10-05T01:46:37.081Z,7.78
2022-10-05T01:49:28.448Z,7.90
2022-10-05T01:52:21.993Z,7.93
2022-10-05T01:55:03.070Z,7.88
2022-10-05T01:57:50.451Z,7.92
2022-10-05T02:00:18.864Z,7.70
2022-10-05T02:02:47.791Z,7.44
2022-10-05T02:05:29.196Z,7.30
2022-10-05T02:08:02.371Z,7.31
2022-10-05T02:10:35.727Z,7.32
2022-10-05T02:13:10.902Z,7.31
2022-10-05T02:15:46.042Z,7.29
2022-10-05T02:18:29.914Z,7.26
2022-10-05T02:21:02.295Z,7.25
2022-10-05T02:23:35.824Z,7.29
2022-10-05T02:26:04.890Z,7.22
2022-10-05T02:28:54.750Z,7.12
2022-10-05T02:31:36.625Z,6.99
2022-10-05T02:34:24.055Z,7.01
2022-10-05T02:37:12.899Z,7.07
2022-10-05T02:40:05.015Z,7.15
2022-10-05T02:42:56.313Z,7.19
2022-10-05T02:45:30.420Z,7.22
2022-10-05T02:48:03.670Z,7.24
2022-10-05T02:50:43.010Z,7.15
2022-10-05T02:53:41.946Z,6.95
2022-10-05T02:56:17.670Z,6.93
2022-10-05T02:59:28.313Z,7.10
2022-10-05T03:02:26.102Z,7.07
2022-10-05T03:32:12.460Z,7.60
2022-10-05T03:34:55.099Z,7.59
2022-10-05T03:37:28.319Z,7.48
2022-10-05T03:40:10.200Z,7.42
2022-10-05T03:42:55.595Z,7.41
2022-10-05T03:45:25.612Z,7.29
2022-10-05T03:48:03.319Z,7.27
2022-10-05T03:50:51.239Z,7.26
2022-10-05T03:53:25.595Z,7.25
2022-10-05T03:56:12.905Z,7.29
2022-10-05T03:58:48.863Z,7.28
2022-10-05T04:01:22.483Z,7.11
2022-10-05T04:03:59.639Z,7.00
2022-10-05T04:06:30.612Z,6.94
2022-10-05T04:09:07.272Z,6.95
2022-10-05T04:11:39.488Z,6.87
2022-10-05T04:14:37.159Z,6.87
2022-10-05T04:17:11.277Z,6.85
2022-10-05T04:19:41.143Z,6.82
2022-10-05T04:22:38.292Z,6.87
2022-10-05T04:25:20.357Z,6.90
2022-10-05T04:27:53.743Z,6.90
2022-10-05T04:30:24.688Z,6.96
2022-10-05T04:32:58.008Z,6.93
2022-10-05T04:35:31.777Z,6.96
2022-10-05T04:38:23.832Z,7.02
2022-10-05T04:41:00.891Z,7.14
2022-10-05T04:43:45.931Z,7.24
2022-10-05T04:46:21.024Z,7.37
2022-10-05T04:49:00.230Z,7.42
2022-10-05T04:51:39.169Z,7.47
2022-10-05T04:54:45.006Z,7.52
2022-10-05T04:57:23.923Z,7.57
2022-10-05T05:00:17.183Z,7.60
2022-10-05T05:02:52.890Z,7.69
2022-10-05T05:05:23.518Z,7.73
2022-10-05T05:08:02.184Z,7.81
2022-10-05T05:10:52.989Z,8.02
2022-10-05T05:13:53.668Z,8.24
2022-10-05T05:16:29.488Z,8.24
2022-10-05T05:19:21.875Z,8.35
2022-10-05T05:22:04.526Z,8.45
2022-10-05T05:24:49.678Z,8.32
2022-10-05T05:27:54.984Z,8.23
2022-10-05T05:30:35.852Z,8.17
2022-10-05T05:33:23.473Z,8.07
2022-10-05T05:36:31.879Z,8.02
2022-10-05T05:39:03.774Z,8.00
2022-10-05T05:41:39.802Z,7.96
2022-10-05T05:44:23.935Z,7.90
2022-10-05T05:47:04.485Z,7.85
2022-10-05T05:49:41.742Z,7.84
2022-10-05T05:52:22.354Z,7.83
2022-10-05T05:54:58.694Z,7.79
2022-10-05T05:57:37.815Z,7.77
2022-10-05T06:00:35.959Z,7.75
2022-10-05T06:03:44.481Z,7.76
2022-10-05T06:06:20.231Z,7.79
2022-10-05T06:09:03.240Z,7.84
2022-10-05T06:11:53.631Z,7.86
2022-10-05T06:14:33.660Z,7.90
2022-10-05T06:17:20.952Z,8.03
2022-10-05T06:19:52.368Z,8.21
2022-10-05T06:22:26.554Z,8.40
2022-10-05T06:25:15.144Z,8.53
2022-10-05T06:28:11.371Z,8.79
2022-10-05T06:30:51.524Z,8.98
2022-10-05T06:33:31.743Z,9.29
2022-10-05T06:36:18.962Z,9.50
2022-10-05T06:39:08.719Z,9.76
2022-10-05T06:42:00.675Z,10.15
2022-10-05T06:44:53.624Z,10.20
2022-10-05T06:48:18.826Z,10.59
2022-10-05T06:51:15.331Z,10.76
2022-10-05T06:54:06.689Z,10.96
2022-10-05T06:56:43.570Z,11.16
2022-10-05T06:59:23.556Z,11.12
2022-10-05T07:02:17.786Z,11.28
2022-10-05T07:05:13.035Z,11.81
2022-10-05T07:07:52.792Z,11.61
2022-10-05T07:10:37.244Z,11.80
2022-10-05T07:13:18.004Z,12.25
2022-10-05T07:15:59.867Z,12.33
2022-10-05T07:18:52.508Z,12.67
2022-10-05T07:22:14.503Z,12.14
2022-10-05T07:25:17.850Z,12.36
2022-10-05T07:27:55.898Z,12.36
2022-10-05T07:30:23.754Z,12.17
2022-10-05T07:33:05.549Z,12.42
2022-10-05T07:36:17.701Z,12.61
2022-10-05T07:39:11.470Z,13.05
2022-10-05T07:41:48.367Z,13.35
2022-10-05T07:44:26.521Z,13.36
2022-10-05T07:47:02.217Z,13.52
2022-10-05T07:49:41.137Z,13.24
2022-10-05T07:52:16.811Z,13.29
2022-10-05T07:55:12.794Z,13.35
2022-10-05T07:57:54.689Z,13.52
2022-10-05T08:00:24.552Z,13.76
2022-10-05T08:03:24.176Z,13.81
2022-10-05T08:05:51.208Z,13.90
2022-10-05T08:08:28.358Z,13.91
2022-10-05T08:11:24.099Z,13.79
2022-10-05T08:14:16.784Z,14.12
2022-10-05T08:16:48.822Z,14.21
2022-10-05T08:19:32.790Z,14.08
2022-10-05T08:22:06.537Z,14.22
2022-10-05T08:25:11.464Z,14.28
2022-10-05T08:27:55.762Z,14.33
2022-10-05T08:30:23.389Z,14.40
2022-10-05T08:33:00.010Z,14.48
2022-10-05T08:35:38.319Z,14.67
2022-10-05T08:38:13.705Z,14.40
2022-10-05T08:41:02.216Z,14.82
2022-10-05T08:43:55.266Z,14.65
2022-10-05T08:46:57.524Z,14.91
2022-10-05T08:49:58.340Z,15.03
2022-10-05T08:52:31.736Z,14.62
2022-10-05T08:55:10.764Z,14.92
2022-10-05T08:58:14.915Z,15.06
2022-10-05T09:01:01.912Z,15.32
2022-10-05T09:04:10.252Z,15.34
2022-10-05T09:07:07.349Z,15.23
2022-10-05T09:09:37.197Z,15.28
2022-10-05T09:12:19.244Z,15.25
2022-10-05T09:15:26.395Z,15.42
2022-10-05T09:18:30.681Z,15.51
2022-10-05T09:21:50.201Z,15.71
2022-10-05T09:24:48.507Z,15.77
2022-10-05T09:27:19.729Z,16.00
2022-10-05T09:30:01.699Z,15.94
2022-10-05T09:32:46.545Z,16.05
2022-10-05T09:35:50.660Z,15.94
2022-10-05T09:38:33.902Z,16.27
2022-10-05T09:41:29.197Z,16.29
2022-10-05T10:17:03.146Z,15.91
2022-10-05T10:20:00.854Z,16.32
2022-10-05T10:22:54.816Z,16.44
2022-10-05T10:25:47.179Z,16.64
2022-10-05T10:28:26.364Z,16.92
2022-10-05T10:31:17.913Z,16.82
2022-10-05T10:34:03.179Z,17.39
2022-10-05T10:36:42.043Z,17.12
2022-10-05T10:39:43.068Z,17.20
2022-10-05T10:42:48.573Z,16.94
2022-10-05T10:45:24.639Z,17.14
2022-10-05T10:48:05.113Z,16.97
2022-10-05T10:50:59.830Z,16.98
2022-10-05T10:53:42.097Z,17.22
2022-10-05T10:56:33.503Z,17.34
2022-10-05T10:59:09.327Z,17.09
2022-10-05T11:02:04.095Z,17.20
2022-10-05T11:04:53.903Z,17.11
2022-10-05T11:08:04.366Z,17.08
2022-10-05T11:11:09.242Z,17.21
2022-10-05T11:14:02.786Z,17.41
2022-10-05T11:17:05.131Z,17.23
2022-10-05T11:20:04.852Z,17.14
2022-10-05T11:22:51.108Z,17.42
2022-10-05T11:25:49.175Z,17.61
2022-10-05T11:28:31.325Z,17.45
2022-10-05T11:31:16.009Z,17.22
2022-10-05T11:34:22.904Z,17.17
2022-10-05T11:37:02.189Z,17.11
2022-10-05T11:39:30.817Z,17.23
2022-10-05T11:42:28.324Z,17.25
2022-10-05T11:45:24.201Z,17.20
2022-10-05T11:47:59.862Z,17.14
2022-10-05T11:50:50.320Z,17.28
2022-10-05T11:53:39.434Z,17.09
2022-10-05T11:56:12.784Z,17.26
2022-10-05T11:59:02.909Z,17.41
2022-10-05T12:02:08.593Z,17.72
2022-10-05T12:04:55.703Z,17.54
2022-10-05T12:07:33.867Z,18.19
2022-10-05T12:10:33.001Z,17.91
2022-10-05T12:13:02.850Z,17.41
2022-10-05T12:16:04.778Z,17.73
2022-10-05T12:18:31.819Z,17.69
2022-10-05T12:21:17.848Z,17.66
2022-10-05T12:23:53.271Z,18.01
2022-10-05T12:26:38.115Z,18.43
2022-10-05T12:29:27.416Z,18.04
2022-10-05T12:31:57.619Z,17.85
2022-10-05T12:34:37.582Z,17.79
2022-10-05T12:37:16.964Z,18.02
2022-10-05T12:39:53.521Z,17.89
2022-10-05T12:42:26.116Z,18.26
2022-10-05T12:45:04.451Z,17.87
2022-10-05T12:47:58.262Z,18.17
2022-10-05T12:50:33.261Z,18.37
2022-10-05T12:53:06.215Z,18.28
2022-10-05T12:55:39.160Z,18.57
2022-10-05T12:58:15.154Z,18.24
2022-10-05T13:01:12.936Z,18.55
2022-10-05T13:03:50.371Z,17.76
2022-10-05T13:06:45.809Z,17.95
2022-10-05T13:09:46.703Z,18.19
2022-10-05T13:12:42.580Z,18.11
2022-10-05T13:15:20.161Z,17.83
2022-10-05T13:18:12.158Z,17.86
2022-10-05T13:20:54.164Z,17.74
2022-10-05T13:23:56.498Z,17.73
2022-10-05T13:26:40.647Z,18.06
2022-10-05T13:29:25.098Z,17.94
2022-10-05T13:31:59.851Z,18.11
2022-10-05T13:34:41.834Z,17.93
2022-10-05T13:37:34.094Z,17.80
2022-10-05T13:40:19.319Z,17.83
2022-10-05T13:43:10.822Z,17.91
2022-10-05T13:46:01.891Z,17.72
2022-10-05T13:48:48.370Z,17.94
2022-10-05T13:51:22.564Z,18.04
2022-10-05T13:54:10.787Z,18.02
2022-10-05T13:56:48.714Z,18.11
2022-10-05T13:59:33.293Z,18.10
2022-10-05T14:02:12.444Z,17.91
2022-10-05T14:04:48.085Z,17.93
2022-10-05T14:07:31.901Z,18.08
2022-10-05T14:09:59.843Z,18.03
2022-10-05T14:12:28.424Z,17.92
2022-10-05T14:14:57.555Z,17.91
2022-10-05T14:17:33.480Z,17.91
2022-10-05T14:20:03.100Z,17.80
2022-10-05T14:22:30.093Z,17.79
2022-10-05T14:25:13.818Z,17.54
2022-10-05T14:28:02.210Z,17.65
2022-10-05T14:30:32.226Z,17.54
2022-10-05T14:33:05.061Z,17.51
2022-10-05T14:35:46.687Z,17.45
2022-10-05T14:38:28.261Z,17.30
2022-10-05T14:41:08.383Z,17.23
2022-10-05T14:43:37.158Z,17.21
2022-10-05T14:46:16.548Z,17.34
2022-10-05T14:48:45.549Z,17.14
2022-10-05T14:51:32.210Z,17.14
2022-10-05T14:54:01.559Z,17.06
2022-10-05T14:56:54.529Z,17.23
2022-10-05T14:59:33.730Z,17.03
2022-10-05T15:02:28.754Z,17.11
2022-10-05T15:05:24.842Z,16.93
2022-10-05T15:07:57.341Z,16.91
2022-10-05T15:10:35.982Z,16.62
2022-10-05T15:13:15.725Z,16.46
2022-10-05T15:15:47.353Z,16.60
2022-10-05T15:18:37.432Z,16.62
2022-10-05T15:21:26.655Z,16.31
2022-10-05T15:24:02.905Z,16.36
2022-10-05T15:26:48.650Z,16.29
2022-10-05T15:29:27.695Z,16.06
2022-10-05T15:32:06.866Z,15.80
2022-10-05T15:34:36.505Z,16.01
2022-10-05T15:37:22.079Z,15.85
2022-10-05T15:40:07.003Z,15.96
2022-10-05T15:42:39.508Z,15.77
2022-10-05T15:45:33.361Z,15.75
2022-10-05T15:48:07.564Z,15.78
2022-10-05T15:50:56.993Z,15.79
2022-10-05T15:53:46.653Z,15.83
2022-10-05T15:56:23.318Z,15.55
2022-10-05T15:58:50.366Z,15.48
2022-10-05T16:01:30.101Z,15.48
2022-10-05T16:04:23.391Z,15.36
2022-10-05T16:07:20.247Z,15.44
2022-10-05T16:10:11.715Z,15.42
2022-10-05T16:13:04.587Z,14.94
2022-10-05T16:15:48.720Z,15.05
2022-10-05T16:18:47.486Z,15.22
2022-10-05T16:21:44.102Z,14.62
2022-10-05T16:24:35.778Z,14.71
2022-10-05T16:27:16.347Z,14.97
2022-10-05T16:30:02.491Z,14.91
2022-10-05T16:33:02.402Z,14.78
2022-10-05T16:35:46.591Z,14.76
2022-10-05T16:39:01.192Z,14.73
2022-10-05T16:41:43.638Z,14.86
2022-10-05T16:44:28.101Z,14.86
2022-10-05T16:47:04.308Z,14.76
2022-10-05T16:49:48.857Z,15.01
2022-10-05T16:52:21.506Z,14.92
2022-10-05T16:54:56.683Z,14.81
2022-10-05T16:57:30.106Z,14.81
2022-10-05T17:00:08.107Z,14.93
2022-10-05T17:03:10.306Z,14.94
2022-10-05T17:06:02.630Z,14.59
2022-10-05T17:08:39.050Z,14.77
2022-10-05T17:11:16.647Z,14.67
2022-10-05T17:14:21.153Z,14.56
2022-10-05T17:16:57.007Z,14.77
2022-10-05T17:19:37.728Z,14.74
2022-10-05T17:22:27.045Z,14.51
2022-10-05T17:24:53.935Z,14.24
2022-10-05T17:27:30.355Z,14.15
2022-10-05T17:30:48.922Z,14.36
2022-10-05T17:33:30.713Z,14.27
2022-10-05T17:36:04.869Z,14.13
2022-10-05T17:38:31.784Z,13.72
2022-10-05T17:41:03.177Z,13.38
2022-10-05T17:43:32.064Z,13.18
2022-10-05T17:46:09.847Z,13.04
2022-10-05T17:48:48.943Z,12.93
2022-10-05T17:51:46.229Z,12.58
2022-10-05T17:54:41.186Z,12.13
2022-10-05T17:57:08.082Z,11.77
2022-10-05T17:59:47.082Z,11.55
2022-10-05T18:02:22.090Z,11.39
2022-10-05T18:05:16.261Z,11.28
2022-10-05T18:07:48.318Z,11.18
2022-10-05T18:10:27.866Z,10.97
2022-10-05T18:13:00.899Z,10.82
2022-10-05T18:15:41.068Z,10.73
2022-10-05T18:18:33.049Z,10.77
2022-10-05T18:21:19.200Z,10.88
2022-10-05T18:24:01.151Z,10.94
2022-10-05T18:26:49.794Z,10.67
2022-10-05T18:30:08.889Z,10.07
2022-10-05T18:33:11.332Z,9.70
2022-10-05T18:36:03.519Z,9.62
2022-10-05T18:38:48.422Z,9.56
2022-10-05T18:41:31.958Z,9.48
2022-10-05T18:44:20.793Z,9.47
2022-10-05T18:47:13.544Z,9.63
2022-10-05T18:49:59.043Z,9.69
2022-10-05T18:52:58.242Z,9.58
2022-10-05T18:55:35.138Z,9.74
2022-10-05T18:58:20.594Z,9.82
2022-10-05T19:00:51.500Z,10.02
2022-10-05T19:03:21.195Z,10.09
2022-10-05T19:06:08.295Z,10.06
2022-10-05T19:09:06.413Z,9.95
2022-10-05T19:11:53.240Z,9.89
2022-10-05T19:14:37.252Z,9.90
2022-10-05T19:17:28.369Z,10.00
2022-10-05T19:20:07.205Z,10.21
2022-10-05T19:23:05.425Z,10.21
2022-10-05T19:25:54.906Z,9.70
2022-10-05T19:28:56.796Z,9.81
2022-10-05T19:31:34.909Z,9.70
2022-10-05T19:34:19.624Z,9.63
2022-10-05T19:36:59.405Z,9.62
2022-10-05T19:39:50.168Z,9.56
2022-10-05T19:42:57.874Z,9.57
2022-10-05T19:45:28.162Z,9.70
2022-10-05T19:48:13.927Z,9.79
2022-10-05T19:50:53.762Z,9.85
2022-10-05T19:53:26.733Z,10.04
2022-10-05T19:55:55.556Z,10.15
2022-10-05T19:58:22.457Z,10.27
2022-10-05T20:00:56.026Z,10.27
2022-10-05T20:03:31.768Z,10.16
2022-10-05T20:06:01.203Z,10.05
2022-10-05T20:08:43.915Z,9.88
2022-10-05T20:11:18.162Z,9.92
2022-10-05T20:13:48.247Z,10.04
2022-10-05T20:16:33.774Z,10.10
2022-10-05T20:19:20.206Z,10.12
2022-10-05T20:21:52.605Z,10.02
2022-10-05T20:24:28.125Z,10.01
2022-10-05T20:27:05.569Z,9.89
2022-10-05T20:29:38.351Z,9.65
2022-10-05T20:32:13.330Z,9.50
2022-10-05T20:34:42.692Z,9.46
2022-10-05T20:37:11.643Z,9.47
2022-10-05T20:39:39.342Z,9.51
2022-10-05T20:42:07.581Z,9.63
2022-10-05T20:44:35.599Z,9.69
2022-10-05T20:47:02.621Z,9.73
2022-10-05T20:49:35.270Z,9.81
2022-10-05T20:52:03.904Z,9.79
2022-10-05T20:54:31.202Z,9.79
2022-10-05T20:56:59.125Z,9.79
2022-10-05T20:59:26.612Z,9.79
2022-10-05T21:01:53.496Z,9.81
2022-10-05T21:04:30.195Z,9.91
2022-10-05T21:07:01.194Z,9.94
2022-10-05T21:09:28.825Z,9.93
2022-10-05T21:11:56.200Z,9.90
2022-10-05T21:14:24.048Z,9.95
2022-10-05T21:16:52.504Z,9.89
2022-10-05T21:19:19.371Z,9.71
2022-10-05T21:21:46.631Z,9.45
2022-10-05T21:24:15.177Z,9.26
2022-10-05T21:26:42.990Z,9.22
2022-10-05T21:29:12.792Z,9.22
2022-10-05T21:31:40.340Z,9.28
2022-10-05T21:34:07.992Z,9.35
2022-10-05T21:36:35.547Z,9.42
2022-10-05T21:39:02.546Z,9.41
2022-10-05T21:41:29.436Z,9.29
2022-10-05T21:43:56.346Z,9.30
2022-10-05T21:46:26.548Z,9.15
2022-10-05T21:48:55.246Z,9.01
2022-10-05T21:51:25.452Z,8.96
2022-10-05T21:53:56.980Z,8.82
2022-10-05T21:56:30.546Z,8.76
2022-10-05T21:58:58.455Z,8.74
2022-10-05T22:01:25.454Z,8.80
2022-10-05T22:03:52.414Z,8.94
2022-10-05T22:06:19.278Z,9.12
2022-10-05T22:08:46.148Z,9.09
2022-10-05T22:11:15.736Z,8.84
2022-10-05T22:13:48.712Z,8.86
2022-10-05T22:16:18.408Z,8.76
2022-10-05T22:18:45.463Z,8.80
2022-10-05T22:21:14.104Z,8.88
2022-10-05T22:23:42.647Z,8.83
2022-10-05T22:26:12.981Z,8.73
2022-10-05T22:28:41.262Z,8.72
2022-10-05T22:31:09.677Z,8.66
2022-10-05T22:33:37.305Z,8.65
2022-10-05T22:36:05.668Z,8.52
2022-10-05T22:38:32.941Z,8.57
2022-10-05T22:41:00.061Z,8.57
2022-10-05T22:43:30.248Z,8.60
2022-10-05T22:45:57.186Z,8.63
2022-10-05T22:48:24.041Z,8.61
2022-10-05T22:50:50.889Z,8.68
2022-10-05T22:53:17.859Z,8.67
2022-10-05T22:55:44.912Z,8.49
2022-10-05T22:58:11.782Z,8.36
2022-10-05T23:00:57.465Z,8.51
2022-10-05T23:03:25.325Z,8.48
2022-10-05T23:06:07.546Z,8.50
2022-10-05T23:08:36.017Z,8.58
2022-10-05T23:11:04.283Z,8.58
2022-10-05T23:13:31.617Z,8.57
2022-10-05T23:15:58.471Z,8.53
2022-10-05T23:18:25.688Z,8.53
2022-10-05T23:20:54.588Z,8.48
2022-10-05T23:23:23.154Z,8.39
2022-10-05T23:25:50.338Z,8.42
2022-10-05T23:28:17.322Z,8.54
2022-10-05T23:30:44.937Z,8.59
2022-10-05T23:33:11.893Z,8.61
2022-10-05T23:35:38.731Z,8.58
2022-10-05T23:38:05.595Z,8.57
2022-10-05T23:40:32.445Z,8.60
2022-10-05T23:43:01.974Z,8.79
2022-10-05T23:45:28.878Z,8.79
2022-10-05T23:47:55.834Z,8.79
2022-10-05T23:50:25.247Z,8.84
2022-10-05T23:52:52.190Z,8.87
2022-10-05T23:55:19.055Z,8.88
2022-10-05T23:57:45.963Z,8.79
